• Join FlightAware (Why Join?)
  • Login
  • US Flag 
06:11PM EDT


 

Airport Tracker/Info


-or-


 

Live Flight TrackerFlight Track Log ✈ AFL150 ✈ 11-Aug-2013 ✈ UUEE / SVO - MUHA / HAV

Flight Track Log - Related Links

Times and Time Zones

All times are in EDT time to prevent confusion due to time zone crossing. See the AFL150 flight status page for this flight to view local times or setup timezone preferences in your user account.

Time Position Orientation Groundspeed Altitude Reporting Facility
EDT Latitude Longitude Course Direction KTS MPH feet Rate Location/Type
06:23AM 55.9650 37.3740 255° West 183 211 1,300  Level FlightAware
06:24AM 55.9590 37.3290 257° West 185 213 2,400 1,860 Climbing FlightAware
06:24AM 55.9560 37.3060 257° West 194 223 2,700 900 Climbing FlightAware
06:25AM 55.9490 37.2650 253° West 222 255 3,000 780 Climbing FlightAware
06:25AM 55.9440 37.2270 257° West 245 282 3,300 1,380 Climbing FlightAware
06:25AM 55.9480 37.1530 276° West 276 318 4,300 1,920 Climbing FlightAware
06:26AM 55.9550 37.1170 289° West 275 316 5,100 2,520 Climbing FlightAware
06:26AM 55.9660 37.0760 296° West 274 315 6,000 2,520 Climbing FlightAware
06:27AM 55.9820 37.0180 296° West 285 328 7,000 2,400 Climbing FlightAware
06:27AM 55.9940 36.9750 297° West 287 330 7,800 2,400 Climbing FlightAware
06:27AM 56.0050 36.9320 295° West 290 334 8,600 2,400 Climbing FlightAware
06:28AM 56.0190 36.8800 296° West 292 336 9,600 2,100 Climbing FlightAware
06:28AM 56.0380 36.8090 296° West 307 353 10,600 1,320 Climbing FlightAware
06:29AM 56.0610 36.7240 296° West 343 395 11,100 960 Climbing FlightAware
06:29AM 56.0840 36.6350 295° West 369 425 11,700 1,740 Climbing FlightAware
06:30AM 56.1110 36.5350 296° West 375 432 13,100 2,220 Climbing FlightAware
06:30AM 56.1380 36.4340 296° West 382 440 14,400 1,860 Climbing FlightAware
06:31AM 56.1640 36.3310 294° West 395 455 15,400 1,860 Climbing FlightAware
06:32AM 56.1930 36.2230 296° West 397 457 16,700 2,160 Climbing FlightAware
06:32AM 56.2230 36.1150 297° West 406 467 18,000 1,980 Climbing FlightAware
06:32AM 56.2360 36.0900 313° West 416 479 18,300 1,680 Climbing FlightAware
06:33AM 56.2630 36.0550 324° Northwest 426 490 18,800 1,860 Climbing FlightAware
06:33AM 56.3240 36.0130 339° North 433 498 19,800 1,740 Climbing FlightAware
06:34AM 56.3890 35.9610 336° Northwest 431 496 20,800 1,500 Climbing FlightAware
06:34AM 56.4420 35.8810 320° Northwest 433 498 21,600 1,320 Climbing FlightAware
06:35AM 56.5010 35.7960 322° Northwest 442 509 22,400 1,200 Climbing FlightAware
06:36AM 56.5520 35.7210 321° Northwest 449 517 23,000 1,200 Climbing FlightAware
06:36AM 56.6100 35.6350 321° Northwest 456 525 23,800 1,320 Climbing FlightAware
06:37AM 56.6700 35.5460 321° Northwest 461 531 24,600 1,320 Climbing FlightAware
06:37AM 56.7290 35.4570 320° Northwest 463 533 25,400 1,320 Climbing FlightAware
06:38AM 56.7800 35.3810 321° Northwest 468 539 26,100 1,200 Climbing FlightAware
06:38AM 56.8340 35.3000 321° Northwest 473 544 26,700 960 Climbing FlightAware
06:39AM 56.9010 35.1990 321° Northwest 478 550 27,300 960 Climbing FlightAware
06:40AM 56.9530 35.1190 320° Northwest 483 556 27,900 960 Climbing FlightAware
06:40AM 57.0170 35.0230 321° Northwest 487 560 28,400 780 Climbing FlightAware
06:41AM 57.0720 34.9380 320° Northwest 492 566 28,800 960 Climbing FlightAware
06:41AM 57.1430 34.8220 318° Northwest 488 562 29,600 1,260 Climbing FlightAware
06:42AM 57.1960 34.7210 314° West 477 549 30,400 1,080 Climbing FlightAware
06:43AM 57.2510 34.6160 314° West 490 564 30,900 900 Climbing FlightAware
06:43AM 57.3200 34.5370 328° Northwest 499 574 31,500 900 Climbing FlightAware
06:44AM 57.3840 34.4530 325° Northwest 494 568 32,000 660 Climbing FlightAware
06:44AM 57.4460 34.3590 321° Northwest 497 572 32,300 660 Climbing FlightAware
06:45AM 57.5060 34.2630 319° Northwest 498 573 32,800 720 Climbing FlightAware
06:46AM 57.5680 34.1640 319° Northwest 498 573 33,200 720 Climbing FlightAware
06:46AM 57.6280 34.0690 320° Northwest 500 575 33,700 660 Climbing FlightAware
06:47AM 57.6910 33.9690 320° Northwest 499 574 34,000 240 Climbing FlightAware
06:47AM 57.7510 33.8720 319° Northwest 492 566 34,000  Level FlightAware
06:48AM 57.8120 33.7740 319° Northwest 488 562 34,000  Level FlightAware
06:48AM 57.8710 33.6780 319° Northwest 487 560 34,000  Level FlightAware
06:49AM 57.9310 33.5810 319° Northwest 487 560 34,000  Level FlightAware
06:50AM 57.9900 33.4830 319° Northwest 486 559 34,000  Level FlightAware
06:50AM 58.0480 33.3890 319° Northwest 484 557 34,000  Level FlightAware
06:51AM 58.1050 33.2940 319° Northwest 481 554 34,000  Level FlightAware
06:51AM 58.1630 33.1980 319° Northwest 481 554 34,000  Level FlightAware
06:52AM 58.2270 33.0900 318° Northwest 481 554 34,000  Level FlightAware
06:53AM 58.2770 33.0030 318° Northwest 481 554 34,000  Level FlightAware
06:53AM 58.3280 32.9170 318° Northwest 481 554 34,000  Level FlightAware
06:54AM 58.3780 32.8300 318° Northwest 481 554 34,000  Level FlightAware
06:54AM 58.4290 32.7430 318° Northwest 481 554 34,000  Level FlightAware
06:55AM 58.4810 32.6530 318° Northwest 481 554 34,000  Level FlightAware
06:56AM 58.5320 32.5660 318° Northwest 481 554 34,000  Level FlightAware
06:56AM 58.6540 32.3660 320° Northwest 488 562 34,000  Level FlightAware
06:57AM 58.7070 32.2740 318° Northwest 486 559 34,000  Level FlightAware
06:57AM 58.7770 32.1530 318° Northwest 486 559 34,000  Level FlightAware
06:58AM 58.8370 32.0470 318° Northwest 485 558 34,000  Level FlightAware
06:59AM 58.8870 31.9600 318° Northwest 484 557 34,000  Level FlightAware
06:59AM 58.9590 31.8120 313° West 469 540 34,000  Level FlightAware
07:00AM 58.9880 31.6720 292° West 457 526 34,000  Level FlightAware
07:01AM 59.0190 31.5200 292° West 459 528 34,000  Level FlightAware
07:01AM 59.0420 31.4060 291° West 459 528 34,000  Level FlightAware
07:02AM 59.0690 31.2750 292° West 461 531 34,000  Level FlightAware
07:02AM 59.0970 31.1350 291° West 463 533 34,000  Level FlightAware
07:03AM 59.1240 31.0010 291° West 464 534 34,000  Level FlightAware
07:03AM 59.1510 30.8630 291° West 465 535 34,000  Level FlightAware
07:04AM 59.1780 30.7260 291° West 465 535 34,000  Level FlightAware
07:05AM 59.2040 30.5910 291° West 465 535 34,000  Level FlightAware
07:05AM 59.2310 30.4490 290° West 464 534 34,000  Level FlightAware
07:06AM 59.2600 30.2960 290° West 464 534 34,000  Level FlightAware
07:06AM 59.2870 30.1570 291° West 462 532 34,000  Level FlightAware
07:07AM 59.3070 30.0480 290° West 461 531 34,000  Level FlightAware
07:08AM 59.3350 29.9030 291° West 460 529 34,000  Level FlightAware
07:08AM 59.3600 29.7690 290° West 458 527 34,000  Level FlightAware
07:09AM 59.3890 29.6120 290° West 458 527 34,000  Level FlightAware
07:09AM 59.4100 29.4940 289° West 459 528 34,000  Level FlightAware
07:10AM 59.4390 29.3380 290° West 460 529 34,000  Level FlightAware
07:10AM 59.4600 29.2220 290° West 461 531 34,000  Level FlightAware
07:11AM 59.4850 29.0800 289° West 462 532 34,000  Level FlightAware
07:12AM 59.5100 28.9420 290° West 463 533 34,000  Level FlightAware
07:12AM 59.5330 28.8080 289° West 463 533 34,000  Level FlightAware
07:13AM 59.5570 28.6720 289° West 464 534 34,000  Level FlightAware
07:13AM 59.5860 28.5080 289° West 466 536 34,000  Level FlightAware
07:14AM 59.6060 28.3940 289° West 466 536 34,000  Level FlightAware
07:15AM 59.6310 28.2450 288° West 465 535 34,000  Level FlightAware
07:15AM 59.6550 28.1060 289° West 464 534 34,000  Level FlightAware
07:16AM 59.6790 27.9660 289° West 463 533 34,000  Level FlightAware
07:16AM 59.7020 27.8280 288° West 462 532 34,000  Level FlightAware
07:17AM 59.7290 27.6650 288° West 462 532 34,000  Level FlightAware
07:17AM 59.7500 27.5400 288° West 462 532 34,000  Level FlightAware
07:18AM 59.7730 27.3990 288° West 462 532 34,000  Level FlightAware
07:19AM 59.7950 27.2600 288° West 462 532 34,000  Level FlightAware
07:19AM 59.8210 27.1020 288° West 463 533 34,000  Level FlightAware
07:20AM 59.8400 26.9800 287° West 462 532 34,000  Level FlightAware
07:20AM 59.8630 26.8390 288° West 461 531 34,000  Level FlightAware
07:21AM 59.8850 26.6960 287° West 460 529 34,000  Level FlightAware
07:22AM 59.9080 26.5530 288° West 460 529 34,000  Level FlightAware
07:22AM 59.9360 26.3920 289° West 468 539 34,000  Level FlightAware
07:23AM 59.9630 26.2740 295° West 477 549 34,000  Level FlightAware
07:23AM 60.0000 26.1390 299° West 479 551 34,000  Level FlightAware
07:24AM 60.0340 25.9990 296° West 477 549 34,000  Level FlightAware
07:24AM 60.0680 25.8600 296° West 479 551 34,000  Level FlightAware
07:25AM 60.1050 25.7130 297° West 479 551 34,000  Level FlightAware
07:26AM 60.1360 25.5880 297° West 478 550 34,000  Level FlightAware
07:26AM 60.1720 25.4440 297° West 479 551 34,000  Level FlightAware
07:27AM 60.2050 25.3100 296° West 480 552 34,000  Level FlightAware
07:27AM 60.2390 25.1680 296° West 480 552 34,000  Level FlightAware
07:28AM 60.2740 25.0260 296° West 481 554 34,000  Level FlightAware
07:29AM 60.3080 24.8850 296° West 481 554 34,000  Level FlightAware
07:29AM 60.3410 24.7460 296° West 480 552 34,000  Level FlightAware
07:30AM 60.3750 24.6040 296° West 481 554 34,000  Level FlightAware
07:30AM 60.4130 24.4430 296° West 480 552 34,000  Level FlightAware
07:31AM 60.4400 24.3270 295° West 480 552 34,000  Level FlightAware
07:31AM 60.4740 24.1880 296° West 481 554 34,000  Level FlightAware
07:32AM 60.5130 24.0420 299° West 481 554 34,000  Level FlightAware
07:33AM 60.5560 23.8820 299° West 480 552 34,000  Level FlightAware
07:33AM 60.5860 23.7650 298° West 477 549 34,000  Level FlightAware
07:34AM 60.6220 23.6290 298° West 477 549 34,000  Level FlightAware
07:34AM 60.6570 23.4930 298° West 477 549 34,000  Level FlightAware
07:35AM 60.6940 23.3500 298° West 477 549 34,000  Level FlightAware
07:36AM 60.7300 23.2100 298° West 476 548 34,000  Level FlightAware
07:36AM 60.7650 23.0730 298° West 475 547 34,000  Level FlightAware
07:37AM 60.7970 22.9460 297° West 475 547 34,000  Level FlightAware
07:37AM 60.8350 22.7930 297° West 473 544 34,000  Level FlightAware
07:38AM 60.8760 22.6320 298° West 472 543 34,000  Level FlightAware
07:38AM 60.9050 22.5130 297° West 470 541 34,000  Level FlightAware
07:39AM 60.9380 22.3780 297° West 470 541 34,000  Level FlightAware
07:40AM 60.9730 22.2510 300° West 472 543 34,000  Level FlightAware
07:40AM 61.0170 22.1090 303° West 473 544 34,000  Level FlightAware
07:41AM 61.0650 21.9550 303° West 474 545 34,000  Level FlightAware
07:41AM 61.1050 21.8220 302° West 473 544 34,000  Level FlightAware
07:42AM 61.1400 21.7060 302° West 473 544 34,000  Level FlightAware
07:43AM 61.1810 21.5700 302° West 472 543 34,000  Level FlightAware
07:43AM 61.2260 21.4210 302° West 470 541 34,000  Level FlightAware
07:44AM 61.2600 21.3060 302° West 468 539 34,000  Level FlightAware
07:44AM 61.2980 21.1770 302° West 467 537 34,000  Level FlightAware
07:45AM 61.3430 21.0250 302° West 465 535 34,000  Level FlightAware
07:45AM 61.3750 20.9130 301° West 465 535 34,000  Level FlightAware
07:46AM 61.4220 20.7500 301° West 466 536 34,000  Level FlightAware
07:47AM 61.4560 20.6330 301° West 467 537 34,000  Level FlightAware
07:47AM 61.4930 20.5020 301° West 467 537 34,000  Level FlightAware
07:48AM 61.5320 20.3650 301° West 467 537 34,000  Level FlightAware
07:48AM 61.5770 20.2070 301° West 467 537 34,000  Level FlightAware
07:49AM 61.6120 20.0810 300° West 466 536 34,000  Level FlightAware
07:50AM 61.6450 19.9600 300° West 463 533 34,000  Level FlightAware
07:50AM 61.6850 19.8070 299° West 461 531 34,000  Level FlightAware
07:51AM 61.7190 19.6800 300° West 459 528 34,000  Level FlightAware
07:51AM 61.7570 19.5330 299° West 457 526 34,000  Level FlightAware
07:52AM 61.7920 19.4000 299° West 458 527 34,000 60 Level FlightAware
07:53AM 61.8360 19.2270 298° West 458 527 34,100 360 Climbing FlightAware
07:53AM 61.8680 19.1040 299° West 460 529 34,500 540 Climbing FlightAware
07:54AM 61.9040 18.9640 299° West 468 539 34,700 480 Climbing FlightAware
07:54AM 61.9390 18.8240 298° West 471 542 35,100 660 Climbing FlightAware
07:55AM 61.9760 18.6800 299° West 466 536 35,500 480 Climbing FlightAware
07:56AM 62.0170 18.5150 298° West 478 550 35,700 300 Climbing FlightAware
07:56AM 62.0520 18.3740 298° West 480 552 35,900 240 Climbing FlightAware
07:57AM 62.0840 18.2470 298° West 481 554 36,000 60 Climbing FlightAware
07:57AM 62.1190 18.1020 297° West 474 545 36,000  Level FlightAware
07:58AM 62.1550 17.9560 298° West 473 544 36,000  Level FlightAware
07:59AM 62.1950 17.7920 298° West 472 543 36,000  Level FlightAware
07:59AM 62.2310 17.6390 297° West 471 542 36,000  Level FlightAware
08:00AM 62.2710 17.4720 297° West 472 543 36,000  Level FlightAware
08:00AM 62.3060 17.3240 297° West 473 544 36,000  Level FlightAware
08:01AM 62.3450 17.1610 297° West 473 544 36,000  Level FlightAware
08:02AM 62.3800 17.0100 297° West 475 547 36,000  Level FlightAware
08:02AM 62.4140 16.8630 297° West 477 549 36,000  Level FlightAware
08:03AM 62.4490 16.7110 297° West 479 551 36,000  Level FlightAware
08:03AM 62.4840 16.5600 297° West 483 556 36,000  Level FlightAware
08:04AM 62.5230 16.3890 296° West 483 556 36,000  Level FlightAware
08:05AM 62.5530 16.2560 296° West 482 555 36,000  Level FlightAware
08:05AM 62.5860 16.1080 296° West 481 554 36,000  Level FlightAware
08:06AM 62.6200 15.9560 296° West 481 554 36,000  Level FlightAware
08:06AM 62.6590 15.7770 295° West 482 555 36,000  Level FlightAware
08:07AM 62.6870 15.6510 296° West 477 549 36,000  Level FlightAware
08:07AM 62.7200 15.4990 295° West 476 548 36,000  Level FlightAware
08:08AM 62.7570 15.3270 295° West 477 549 36,000  Level FlightAware
08:09AM 62.7860 15.1920 295° West 477 549 36,000  Level FlightAware
08:09AM 62.8230 15.0200 295° West 477 549 36,000  Level FlightAware
08:10AM 62.8510 14.8860 295° West 475 547 36,000  Level FlightAware
08:10AM 62.8820 14.7380 295° West 476 548 36,000  Level FlightAware
08:11AM 62.9200 14.5550 295° West 477 549 36,000  Level FlightAware
08:12AM 62.9430 14.4440 295° West 478 550 36,000  Level FlightAware
08:12AM 62.9840 14.2440 294° West 481 554 36,000  Level FlightAware
08:13AM 63.0120 14.1090 295° West 480 552 36,000  Level FlightAware
08:13AM 63.0420 13.9590 294° West 480 552 36,000  Level FlightAware
08:14AM 63.0770 13.7880 294° West 479 551 36,000  Level FlightAware
08:14AM 63.1070 13.6330 293° West 480 552 36,000  Level FlightAware
08:15AM 63.1400 13.4650 294° West 483 556 36,000  Level FlightAware
08:16AM 63.1720 13.3030 294° West 483 556 36,000  Level FlightAware
08:16AM 63.2010 13.1570 294° West 483 556 36,000  Level FlightAware
08:17AM 63.2330 12.9880 293° West 481 554 36,000  Level FlightAware
08:17AM 63.2650 12.8210 293° West 480 552 36,000  Level FlightAware
08:18AM 63.2920 12.6800 293° West 478 550 36,000  Level FlightAware
08:19AM 63.3230 12.5160 293° West 478 550 36,000  Level FlightAware
08:19AM 63.3500 12.3710 293° West 478 550 36,000  Level FlightAware
08:20AM 63.3800 12.2100 293° West 477 549 36,000  Level FlightAware
08:20AM 63.4100 12.0440 292° West 476 548 36,000  Level FlightAware
08:21AM 63.4400 11.8800 292° West 477 549 36,000  Level FlightAware
08:21AM 63.4680 11.7270 292° West 478 550 36,000  Level FlightAware
08:22AM 63.4990 11.5550 292° West 477 549 36,000  Level FlightAware
08:23AM 63.5250 11.4080 292° West 477 549 36,000  Level FlightAware
08:23AM 63.5550 11.2360 291° West 478 550 36,000  Level FlightAware
08:24AM 63.5820 11.0810 291° West 478 550 36,000  Level FlightAware
08:24AM 63.6100 10.9190 291° West 478 550 36,000  Level FlightAware
08:25AM 63.6360 10.7720 292° West 478 550 36,000  Level FlightAware
08:26AM 63.6650 10.6020 291° West 477 549 36,000  Level FlightAware
08:26AM 63.6920 10.4390 291° West 478 550 36,000  Level FlightAware
08:27AM 63.7220 10.2600 291° West 478 550 36,000  Level FlightAware
08:27AM 63.7470 10.1120 291° West 477 549 36,000  Level FlightAware
08:28AM 63.7710 9.9640 290° West 477 549 36,000  Level FlightAware
08:28AM 63.8020 9.7770 291° West 478 550 36,000  Level FlightAware
08:29AM 63.8260 9.6270 290° West 478 550 36,000  Level FlightAware
08:30AM 63.8520 9.4660 290° West 477 549 36,000  Level FlightAware
08:30AM 63.8790 9.2950 290° West 477 549 36,000  Level FlightAware
08:31AM 63.9040 9.1420 290° West 477 549 36,000  Level FlightAware
08:31AM 63.9300 8.9700 289° West 478 550 36,000  Level FlightAware
08:32AM 63.9550 8.8080 289° West 476 548 36,000  Level FlightAware
08:33AM 63.9790 8.6530 290° West 477 549 36,000  Level FlightAware
08:33AM 64.0050 8.4800 289° West 478 550 36,000  Level FlightAware
08:34AM 64.0320 8.3040 289° West 479 551 36,000  Level FlightAware
08:34AM 64.0570 8.1330 289° West 479 551 36,000  Level FlightAware
08:35AM 64.0830 7.9590 289° West 478 550 36,000  Level FlightAware
08:35AM 64.1050 7.8120 289° West 478 550 36,000  Level FlightAware
08:36AM 64.1310 7.6330 288° West 477 549 36,000  Level FlightAware
08:37AM 64.1530 7.4760 288° West 479 551 36,000  Level FlightAware
08:37AM 64.1790 7.2940 288° West 479 551 36,000  Level FlightAware
08:38AM 64.2020 7.1290 288° West 479 551 36,000  Level FlightAware
08:38AM 64.2270 6.9530 288° West 480 552 36,000  Level FlightAware
08:39AM 64.2480 6.7980 287° West 482 555 36,000  Level FlightAware
08:40AM 64.2730 6.6170 288° West 483 556 36,000  Level FlightAware
08:40AM 64.2960 6.4450 287° West 482 555 36,000  Level FlightAware
08:41AM 64.3200 6.2680 287° West 479 551 36,000  Level FlightAware
08:41AM 64.3410 6.1090 287° West 478 550 36,000  Level FlightAware
08:42AM 64.3640 5.9300 287° West 479 551 36,000  Level FlightAware
08:42AM 64.3850 5.7700 287° West 479 551 36,000  Level FlightAware
08:43AM 64.4080 5.5930 287° West 479 551 36,000  Level FlightAware
08:44AM 64.4300 5.4150 286° West 479 551 36,000  Level FlightAware
08:44AM 64.4500 5.2560 286° West 481 554 36,000  Level FlightAware
08:45AM 64.4750 5.0580 286° West 481 554 36,000  Level FlightAware
08:46AM 64.4980 4.8600 285° West 481 554 36,000  Level FlightAware
08:46AM 64.5150 4.7070 285° West 481 554 36,000  Level FlightAware
08:47AM 64.5340 4.5500 286° West 481 554 36,000  Level FlightAware
08:47AM 64.5520 4.3920 285° West 481 554 36,000  Level FlightAware
08:48AM 64.5690 4.2390 285° West 481 554 36,000  Level FlightAware
08:49AM 64.5870 4.0820 285° West 481 554 36,000  Level FlightAware
08:49AM 64.6050 3.9280 285° West 481 554 36,000  Level FlightAware
08:50AM 64.6230 3.7710 285° West 481 554 36,000  Level FlightAware
08:50AM 64.6410 3.6170 285° West 481 554 36,000  Level FlightAware
08:51AM 64.6580 3.4640 285° West 481 554 36,000  Level FlightAware
08:52AM 64.6760 3.3060 285° West 481 554 36,000  Level FlightAware
08:52AM 64.6940 3.1470 285° West 481 554 36,000  Level FlightAware
08:53AM 64.7180 2.9420 285° West 481 554 36,000  Level FlightAware
08:54AM 64.7350 2.7880 285° West 481 554 36,000  Level FlightAware
08:54AM 64.7540 2.6300 286° West 481 554 36,000  Level FlightAware
08:55AM 64.7720 2.4710 285° West 481 554 36,000  Level FlightAware
08:58AM 64.8029 1.7026 276° West  Level Estimated
08:59AM 64.8139 1.4028 275° West  Level Estimated
09:00AM 64.8242 1.1027 275° West  Level Estimated
09:01AM 64.8339 0.8024 275° West  Level Estimated
09:02AM 64.8431 0.5019 274° West  Level Estimated
09:03AM 64.8516 0.2012 274° West  Level Estimated
09:04AM 64.8596 -0.0996 274° West  Level Estimated
09:05AM 64.8669 -0.4007 273° West  Level Estimated
09:06AM 64.8736 -0.7019 273° West  Level Estimated
09:07AM 64.8797 -1.0033 273° West  Level Estimated
09:08AM 64.8852 -1.3047 273° West  Level Estimated
09:09AM 64.8901 -1.6063 272° West  Level Estimated
09:10AM 64.8943 -1.9080 272° West  Level Estimated
09:11AM 64.8980 -2.2098 272° West  Level Estimated
09:12AM 64.9010 -2.5117 272° West  Level Estimated
09:13AM 64.9035 -2.8136 271° West  Level Estimated
09:14AM 64.9053 -3.1156 271° West  Level Estimated
09:15AM 64.9065 -3.4176 271° West  Level Estimated
09:16AM 64.9071 -3.7196 270° West  Level Estimated
09:17AM 64.9071 -4.0217 270° West  Level Estimated
09:18AM 64.9065 -4.3237 270° West  Level Estimated
09:19AM 64.9053 -4.6257 270° West  Level Estimated
09:20AM 64.9035 -4.9277 269° West  Level Estimated
09:21AM 64.9010 -5.2296 269° West  Level Estimated
09:22AM 64.8979 -5.5315 269° West  Level Estimated
09:23AM 64.8943 -5.8333 268° West  Level Estimated
09:24AM 64.8900 -6.1350 268° West  Level Estimated
09:25AM 64.8851 -6.4366 268° West  Level Estimated
09:26AM 64.8796 -6.7380 268° West  Level Estimated
09:27AM 64.8735 -7.0394 267° West  Level Estimated
09:28AM 64.8668 -7.3406 267° West  Level Estimated
09:29AM 64.8594 -7.6416 267° West  Level Estimated
09:30AM 64.8515 -7.9425 267° West  Level Estimated
09:31AM 64.8429 -8.2432 266° West  Level Estimated
09:32AM 64.8338 -8.5437 266° West  Level Estimated
09:33AM 64.8240 -8.8440 266° West  Level Estimated
09:34AM 64.8137 -9.1440 265° West  Level Estimated
09:35AM 64.8027 -9.4438 265° West  Level Estimated
09:36AM 64.7911 -9.7434 265° West  Level Estimated
09:37AM 64.7790 -10.0427 265° West  Level Estimated
09:38AM 64.7662 -10.3418 264° West  Level Estimated
09:39AM 64.7528 -10.6405 264° West  Level Estimated
09:40AM 64.7388 -10.9389 264° West  Level Estimated
09:41AM 64.7242 -11.2371 264° West  Level Estimated
09:42AM 64.7091 -11.5349 263° West  Level Estimated
09:43AM 64.6933 -11.8323 263° West  Level Estimated
09:44AM 64.6769 -12.1294 263° West  Level Estimated
09:45AM 64.6600 -12.4262 263° West  Level Estimated
09:46AM 64.6424 -12.7225 262° West  Level Estimated
09:47AM 64.6243 -13.0185 262° West  Level Estimated
09:48AM 64.6055 -13.3141 262° West  Level Estimated
09:49AM 64.5862 -13.6092 261° West  Level Estimated
09:50AM 64.5663 -13.9039 261° West  Level Estimated
09:51AM 64.5458 -14.1982 261° West  Level Estimated
09:52AM 64.5247 -14.4921 261° West  Level Estimated
09:53AM 64.5030 -14.7855 260° West  Level Estimated
09:54AM 64.4807 -15.0784 260° West  Level Estimated
09:55AM 64.4579 -15.3708 260° West  Level Estimated
09:56AM 64.4345 -15.6628 260° West  Level Estimated
09:57AM 64.4105 -15.9542 259° West  Level Estimated
09:58AM 64.3859 -16.2451 259° West  Level Estimated
09:59AM 64.3607 -16.5355 259° West  Level Estimated
10:00AM 64.3350 -16.8253 259° West  Level Estimated
10:01AM 64.3087 -17.1147 258° West  Level Estimated
10:02AM 64.2819 -17.4034 258° West  Level Estimated
10:03AM 64.2544 -17.6916 258° West  Level Estimated
10:04AM 64.2264 -17.9792 258° West  Level Estimated
10:05AM 64.1979 -18.2662 257° West  Level Estimated
10:06AM 64.1687 -18.5526 257° West  Level Estimated
10:07AM 64.1390 -18.8384 257° West  Level Estimated
10:08AM 64.1088 -19.1236 256° West  Level Estimated
10:09AM 64.0780 -19.4082 256° West  Level Estimated
10:10AM 64.0467 -19.6922 256° West  Level Estimated
10:11AM 64.0147 -19.9755 256° West  Level Estimated
10:12AM 63.9823 -20.2581 255° West  Level Estimated
10:13AM 63.9493 -20.5401 255° West  Level Estimated
10:14AM 63.9157 -20.8214 255° West  Level Estimated
10:15AM 63.8816 -21.1020 255° West  Level Estimated
10:16AM 63.8470 -21.3820 254° West  Level Estimated
10:17AM 63.8118 -21.6612 254° West  Level Estimated
10:18AM 63.7761 -21.9398 254° West  Level Estimated
10:19AM 63.7398 -22.2176 254° West  Level Estimated
10:20AM 63.7030 -22.4947 253° West  Level Estimated
10:21AM 63.6657 -22.7711 253° West  Level Estimated
10:22AM 63.6279 -23.0468 253° West  Level Estimated
10:23AM 63.5895 -23.3217 253° West  Level Estimated
10:24AM 63.5506 -23.5959 252° West  Level Estimated
10:25AM 63.5112 -23.8694 252° West  Level Estimated
10:26AM 63.4713 -24.1420 252° West  Level Estimated
10:27AM 63.4308 -24.4139 252° West  Level Estimated
10:28AM 63.3899 -24.6851 251° West  Level Estimated
10:29AM 63.3484 -24.9555 251° West  Level Estimated
10:30AM 63.3064 -25.2250 251° West  Level Estimated
10:31AM 63.2639 -25.4938 251° West  Level Estimated
10:32AM 63.2209 -25.7618 251° West  Level Estimated
10:33AM 63.1774 -26.0290 250° West  Level Estimated
10:34AM 63.1334 -26.2954 250° West  Level Estimated
10:35AM 63.0889 -26.5610 250° West  Level Estimated
10:36AM 63.0439 -26.8257 250° West  Level Estimated
10:37AM 62.9984 -27.0897 249° West  Level Estimated
10:38AM 62.9524 -27.3528 249° West  Level Estimated
10:39AM 62.9059 -27.6151 249° West  Level Estimated
10:40AM 62.8590 -27.8765 249° West  Level Estimated
10:41AM 62.8115 -28.1371 248° West  Level Estimated
10:42AM 62.7636 -28.3969 248° West  Level Estimated
10:43AM 62.7152 -28.6558 248° West  Level Estimated
10:44AM 62.6663 -28.9139 248° West  Level Estimated
10:45AM 62.6170 -29.1711 247° West  Level Estimated
10:46AM 62.5672 -29.4275 247° West  Level Estimated
10:47AM 62.5169 -29.6829 247° West  Level Estimated
10:48AM 62.4661 -29.9376 247° West  Level Estimated
10:49AM 62.4149 -30.1913 247° West  Level Estimated
10:50AM 62.3633 -30.4442 246° West  Level Estimated
10:51AM 62.3111 -30.6962 246° West  Level Estimated
10:52AM 62.2586 -30.9474 246° West  Level Estimated
10:53AM 62.2055 -31.1976 246° West  Level Estimated
10:54AM 62.1521 -31.4470 245° Southwest  Level Estimated
10:55AM 62.0981 -31.6955 245° Southwest  Level Estimated
10:56AM 62.0438 -31.9431 245° Southwest  Level Estimated
10:57AM 61.9889 -32.1899 245° Southwest  Level Estimated
10:58AM 61.9337 -32.4357 245° Southwest  Level Estimated
10:59AM 61.8780 -32.6806 244° Southwest  Level Estimated
11:00AM 61.8219 -32.9247 244° Southwest  Level Estimated
11:01AM 61.7653 -33.1679 244° Southwest  Level Estimated
11:02AM 61.7084 -33.4101 244° Southwest  Level Estimated
11:03AM 61.6509 -33.6515 243° Southwest  Level Estimated
11:04AM 61.5931 -33.8920 243° Southwest  Level Estimated
11:05AM 61.5349 -34.1315 243° Southwest  Level Estimated
11:06AM 61.4762 -34.3702 243° Southwest  Level Estimated
11:07AM 61.4171 -34.6080 243° Southwest  Level Estimated
11:08AM 61.3576 -34.8448 242° Southwest  Level Estimated
11:09AM 61.2977 -35.0808 242° Southwest  Level Estimated
11:10AM 61.2374 -35.3159 242° Southwest  Level Estimated
11:11AM 61.1767 -35.5500 242° Southwest  Level Estimated
11:12AM 61.1155 -35.7833 242° Southwest  Level Estimated
11:13AM 61.0540 -36.0156 241° Southwest  Level Estimated
11:14AM 60.9921 -36.2471 241° Southwest  Level Estimated
11:15AM 60.9298 -36.4776 241° Southwest  Level Estimated
11:16AM 60.8671 -36.7073 241° Southwest  Level Estimated
11:17AM 60.8040 -36.9360 241° Southwest  Level Estimated
11:18AM 60.7405 -37.1638 240° Southwest  Level Estimated
11:19AM 60.6766 -37.3908 240° Southwest  Level Estimated
11:20AM 60.6124 -37.6168 240° Southwest  Level Estimated
11:21AM 60.5477 -37.8419 240° Southwest  Level Estimated
11:22AM 60.4827 -38.0662 240° Southwest  Level Estimated
11:23AM 60.4173 -38.2895 239° Southwest  Level Estimated
11:24AM 60.3516 -38.5119 239° Southwest  Level Estimated
11:25AM 60.2854 -38.7335 239° Southwest  Level Estimated
11:26AM 60.2189 -38.9541 239° Southwest  Level Estimated
11:27AM 60.1521 -39.1739 239° Southwest  Level Estimated
11:28AM 60.0849 -39.3927 238° Southwest  Level Estimated
11:29AM 60.0173 -39.6107 238° Southwest  Level Estimated
11:30AM 59.9493 -39.8277 238° Southwest  Level Estimated
11:31AM 59.8811 -40.0439 238° Southwest  Level Estimated
11:32AM 59.8124 -40.2592 238° Southwest  Level Estimated
11:33AM 59.7434 -40.4736 238° Southwest  Level Estimated
11:34AM 59.6741 -40.6871 237° Southwest  Level Estimated
11:35AM 59.6044 -40.8997 237° Southwest  Level Estimated
11:36AM 59.5343 -41.1115 237° Southwest  Level Estimated
11:37AM 59.4640 -41.3223 237° Southwest  Level Estimated
11:38AM 59.3933 -41.5323 237° Southwest  Level Estimated
11:39AM 59.3222 -41.7415 236° Southwest  Level Estimated
11:40AM 59.2508 -41.9497 236° Southwest  Level Estimated
11:41AM 59.1791 -42.1571 236° Southwest  Level Estimated
11:42AM 59.1071 -42.3635 236° Southwest  Level Estimated
11:43AM 59.0347 -42.5692 236° Southwest  Level Estimated
11:43AM 64.7240 -51.1340 236° Southwest 440 506 36,000  Level FlightAware
11:43AM 64.6860 -51.2830 239° Southwest 441 507 36,000  Level FlightAware
11:44AM 64.6490 -51.4300 240° Southwest 440 506 36,000  Level FlightAware
11:44AM 64.6180 -51.5520 239° Southwest 439 505 36,000  Level FlightAware
11:45AM 64.5790 -51.7040 239° Southwest 438 504 36,000  Level FlightAware
11:46AM 64.5430 -51.8420 239° Southwest 437 503 36,000  Level FlightAware
11:46AM 64.5060 -51.9850 239° Southwest 436 502 36,000  Level FlightAware
11:47AM 64.4690 -52.1290 239° Southwest 435 501 36,000  Level FlightAware
11:47AM 64.4310 -52.2730 239° Southwest 435 501 36,000  Level FlightAware
11:48AM 64.3970 -52.4000 238° Southwest 436 502 36,000  Level FlightAware
11:49AM 64.3580 -52.5490 239° Southwest 438 504 36,000  Level FlightAware
11:49AM 64.3210 -52.6850 238° Southwest 440 506 36,000  Level FlightAware
11:50AM 64.2830 -52.8280 239° Southwest 441 507 36,000  Level FlightAware
11:50AM 64.2490 -52.9530 238° Southwest 442 509 36,000  Level FlightAware
11:51AM 64.2060 -53.1050 237° Southwest 442 509 36,000  Level FlightAware
11:51AM 64.1700 -53.2390 238° Southwest 443 510 36,000  Level FlightAware
11:52AM 64.1280 -53.3930 238° Southwest 443 510 36,000  Level FlightAware
11:53AM 64.0790 -53.5700 238° Southwest 442 509 36,000  Level FlightAware
11:53AM 64.0470 -53.6820 237° Southwest 442 509 36,000  Level FlightAware
11:54AM 64.0120 -53.8060 237° Southwest 442 509 36,000  Level FlightAware
11:55AM 63.9800 -53.9190 237° Southwest 442 509 36,000  Level FlightAware
11:55AM 63.9450 -54.0410 237° Southwest 442 509 36,000  Level FlightAware
11:56AM 63.9100 -54.1610 236° Southwest 442 509 36,000  Level FlightAware
11:56AM 63.8760 -54.2800 237° Southwest 442 509 36,000  Level FlightAware
11:57AM 63.8420 -54.3990 237° Southwest 442 509 36,000  Level FlightAware
11:58AM 63.8080 -54.5180 237° Southwest 442 509 36,000  Level FlightAware
11:58AM 63.7740 -54.6370 237° Southwest 442 509 36,000  Level FlightAware
11:59AM 63.7400 -54.7560 237° Southwest 442 509 36,000  Level FlightAware
11:59AM 63.7060 -54.8740 237° Southwest 442 509 36,000  Level FlightAware
12:00PM 63.6710 -54.9960 237° Southwest 442 509 36,000  Level FlightAware
12:01PM 63.6360 -55.1170 237° Southwest 442 509 36,000  Level FlightAware
12:01PM 63.6020 -55.2350 237° Southwest 442 509 36,000  Level FlightAware
12:02PM 63.5680 -55.3530 237° Southwest 442 509 36,000  Level FlightAware
12:02PM 63.5330 -55.4740 237° Southwest 442 509 36,000  Level FlightAware
12:04PM 63.3333 -56.0833 234° Southwest 460 529 36,000  Level Gander Center
12:05PM 63.3831 -55.9586 236° Southwest  Level FlightAware Approximate
12:05PM 63.2500 -56.3500 235° Southwest 460 529 36,000  Level Gander Center
12:06PM 63.3111 -56.1876 235° Southwest  Level FlightAware Approximate
12:06PM 63.2000 -56.5833 245° Southwest 470 541 36,000  Level Gander Center
12:07PM 63.2388 -56.4154 235° Southwest  Level FlightAware Approximate
12:07PM 63.1167 -56.8167 232° Southwest 470 541 36,000  Level Gander Center
12:08PM 63.1661 -56.6421 235° Southwest  Level FlightAware Approximate
12:08PM 63.0500 -57.0500 238° Southwest 460 529 36,000  Level Gander Center
12:09PM 63.0930 -56.8677 234° Southwest  Level FlightAware Approximate
12:09PM 62.9833 -57.2667 236° Southwest 470 541 36,000  Level Gander Center
12:10PM 62.9000 -57.5000 232° Southwest 460 529 36,000  Level Gander Center
12:11PM 62.8333 -57.8000 244° Southwest 470 541 36,000  Level Gander Center
12:12PM 62.7667 -57.9500 226° Southwest 480 552 36,000  Level Gander Center
12:14PM 62.6453 -58.2870 232° Southwest  Level FlightAware Approximate
12:18PM 62.2833 -59.3667 221° Southwest 330 380 36,000  Level Montreal Center
12:19PM 62.2000 -59.6333 236° Southwest 450 518 36,000  Level Montreal Center
12:20PM 62.1167 -59.8333 228° Southwest 460 529 36,000  Level Montreal Center
12:21PM 62.0936 -59.7595 232° Southwest  Level FlightAware Approximate
12:21PM 62.0500 -60.0833 240° Southwest 480 552 36,000  Level Gander Center
12:22PM 62.0135 -59.9655 230° Southwest  Level FlightAware Approximate
12:22PM 61.9833 -60.3333 240° Southwest 480 552 36,000  Level Gander Center
12:23PM 61.9214 -60.1464 221° Southwest  Level FlightAware Approximate
12:23PM 61.9167 -60.5500 237° Southwest 480 552 36,000  Level Gander Center
12:24PM 61.8268 -60.3211 221° Southwest  Level FlightAware Approximate
12:24PM 61.8333 -60.7833 233° Southwest 480 552 36,000  Level Gander Center
12:25PM 61.7500 -60.9667 226° Southwest 470 541 36,000  Level Gander Center
12:26PM 61.6667 -61.1833 231° Southwest 480 552 36,000  Level Gander Center
12:27PM 61.5833 -61.4167 233° Southwest 480 552 36,000  Level Gander Center
12:28PM 61.5000 -61.6667 235° Southwest 490 564 36,000  Level Gander Center
12:29PM 61.4167 -61.8667 229° Southwest 490 564 36,000  Level Gander Center
12:30PM 61.3333 -62.1167 235° Southwest 490 564 36,000  Level Gander Center
12:31PM 61.2500 -62.3500 233° Southwest 480 552 36,000  Level Gander Center
12:32PM 61.1667 -62.5500 229° Southwest 490 564 36,000  Level Gander Center
12:33PM 61.0667 -62.8000 230° Southwest 490 564 36,000  Level Gander Center
12:34PM 61.0000 -63.0000 236° Southwest 480 552 36,000  Level Gander Center
12:35PM 60.9167 -63.2000 229° Southwest 480 552 36,000  Level Gander Center
12:36PM 60.8167 -63.3667 219° Southwest 480 552 36,000  Level Gander Center
12:37PM 60.7000 -63.5167 212° Southwest 480 552 36,000  Level Gander Center
12:38PM 60.6000 -63.7167 225° Southwest 480 552 36,000  Level Gander Center
12:39PM 60.5000 -63.8833 219° Southwest 480 552 36,000  Level Gander Center
12:40PM 60.3833 -64.0333 212° Southwest 480 552 36,000  Level Gander Center
12:41PM 60.2833 -64.2000 220° Southwest 480 552 36,000  Level Gander Center
12:42PM 60.1833 -64.3667 220° Southwest 480 552 36,000  Level Gander Center
12:43PM 60.0833 -64.5167 217° Southwest 470 541 36,000  Level Gander Center
12:44PM 59.9833 -64.6667 217° Southwest 470 541 36,000  Level Gander Center
12:45PM 59.8667 -64.8333 216° Southwest 460 529 36,000  Level Gander Center
12:46PM 59.7667 -64.9833 217° Southwest 460 529 36,000  Level Gander Center
12:47PM 59.6667 -65.1333 217° Southwest 460 529 36,000  Level Gander Center
12:48PM 59.5667 -65.2833 217° Southwest 460 529 36,000  Level Gander Center
12:49PM 59.4500 -65.4500 216° Southwest 460 529 36,000  Level Gander Center
12:50PM 59.3667 -65.6000 223° Southwest 460 529 36,000  Level Gander Center
12:51PM 59.2667 -65.7500 217° Southwest 460 529 36,000  Level Gander Center
12:52PM 59.1500 -65.9000 213° Southwest 460 529 36,000  Level Gander Center
12:53PM 59.0500 -66.0167 211° Southwest 450 518 36,000  Level Gander Center
12:54PM 58.9500 -66.1667 218° Southwest 450 518 36,000  Level Gander Center
12:55PM 58.8667 -66.3167 223° Southwest 460 529 36,000  Level Gander Center
12:56PM 58.7500 -66.4500 211° Southwest 460 529 36,000  Level Gander Center
12:57PM 58.6500 -66.6000 218° Southwest 460 529 36,000  Level Gander Center
12:58PM 58.5333 -66.7500 214° Southwest 460 529 36,000  Level Gander Center
12:59PM 58.4333 -66.8833 215° Southwest 460 529 36,000  Level Gander Center
01:00PM 58.3333 -67.0333 218° Southwest 460 529 36,000  Level Gander Center
01:01PM 58.2167 -67.1667 211° Southwest 460 529 36,000  Level Gander Center
01:02PM 58.1167 -67.3167 218° Southwest 460 529 36,000  Level Gander Center
01:03PM 58.0333 -67.4500 220° Southwest 460 529 36,000  Level Gander Center
01:04PM 57.9167 -67.5667 208° Southwest 460 529 36,000  Level Gander Center
01:05PM 57.8167 -67.7000 215° Southwest 450 518 36,000  Level Gander Center
01:06PM 57.7000 -67.8333 211° Southwest 440 506 36,000  Level Montreal Center
01:07PM 57.5833 -67.9500 208° Southwest 440 506 36,000  Level Montreal Center
01:08PM 57.4833 -68.1000 219° Southwest 440 506 36,000  Level Montreal Center
01:09PM 57.3833 -68.2167 212° Southwest 440 506 36,000  Level Montreal Center
01:10PM 57.2833 -68.3500 216° Southwest 440 506 36,000  Level Montreal Center
01:11PM 57.1833 -68.4667 212° Southwest 450 518 36,000  Level Montreal Center
01:12PM 57.0833 -68.5833 212° Southwest 450 518 36,000  Level Montreal Center
01:13PM 56.9667 -68.7333 215° Southwest 450 518 36,000  Level Montreal Center
01:14PM 56.8667 -68.8667 216° Southwest 440 506 36,000  Level Montreal Center
01:15PM 56.7667 -68.9833 213° Southwest 440 506 36,000  Level Montreal Center
01:16PM 56.6500 -69.1333 215° Southwest 440 506 36,000  Level Montreal Center
01:17PM 56.5667 -69.2333 213° Southwest 440 506 36,000  Level Montreal Center
01:18PM 56.4667 -69.3500 213° Southwest 440 506 36,000  Level Montreal Center
01:19PM 56.3500 -69.4833 212° Southwest 430 495 36,000  Level Montreal Center
01:20PM 56.2500 -69.6000 213° Southwest 430 495 36,000  Level Montreal Center
01:21PM 56.1667 -69.7333 222° Southwest 430 495 36,000  Level Montreal Center
01:22PM 56.0500 -69.8333 206° Southwest 430 495 36,000  Level Montreal Center
01:23PM 55.9500 -69.9500 213° Southwest 430 495 36,000  Level Montreal Center
01:24PM 55.8667 -70.0833 222° Southwest 430 495 36,000  Level Montreal Center
01:25PM 55.7500 -70.1833 206° Southwest 430 495 36,000  Level Montreal Center
01:26PM 55.6500 -70.2833 209° Southwest 430 495 36,000  Level Montreal Center
01:27PM 55.5500 -70.4167 217° Southwest 430 495 36,000  Level Montreal Center
01:28PM 55.4500 -70.5333 214° Southwest 430 495 36,000  Level Montreal Center
01:29PM 55.3500 -70.6667 217° Southwest 430 495 36,000  Level Montreal Center
01:30PM 55.2500 -70.7667 210° Southwest 430 495 36,000  Level Montreal Center
01:31PM 55.1333 -70.8667 206° Southwest 430 495 36,000  Level Montreal Center
01:32PM 55.0333 -71.0000 217° Southwest 440 506 36,000  Level Montreal Center
01:33PM 54.9500 -71.1000 215° Southwest 430 495 36,000  Level Montreal Center
01:34PM 54.8333 -71.2000 206° Southwest 440 506 36,000  Level Montreal Center
01:35PM 54.7333 -71.3167 214° Southwest 440 506 36,000  Level Montreal Center
01:36PM 54.6167 -71.4167 206° Southwest 440 506 36,000  Level Montreal Center
01:37PM 54.5000 -71.5500 214° Southwest 440 506 36,000  Level Montreal Center
01:38PM 54.4000 -71.6500 210° Southwest 440 506 36,000  Level Montreal Center
01:39PM 54.3000 -71.7833 218° Southwest 440 506 36,000  Level Montreal Center
01:40PM 54.2000 -71.8667 206° Southwest 440 506 36,000  Level Montreal Center
01:41PM 54.1000 -71.9667 210° Southwest 440 506 36,000  Level Montreal Center
01:42PM 53.9833 -72.1000 214° Southwest 440 506 36,000  Level Montreal Center
01:43PM 53.8833 -72.1833 206° Southwest 440 506 36,000  Level Montreal Center
01:44PM 53.7667 -72.3167 214° Southwest 440 506 36,000  Level Montreal Center
01:45PM 53.6667 -72.4167 211° Southwest 440 506 36,000  Level Montreal Center
01:46PM 53.5667 -72.5333 215° Southwest 440 506 36,000  Level Montreal Center
01:47PM 53.4500 -72.6333 207° Southwest 440 506 36,000  Level Montreal Center
01:48PM 53.3500 -72.7500 215° Southwest 440 506 36,000  Level Montreal Center
01:49PM 53.2500 -72.8333 207° Southwest 440 506 36,000  Level Montreal Center
01:50PM 53.1333 -72.9333 207° Southwest 430 495 36,000  Level Montreal Center
01:51PM 53.0333 -73.0500 215° Southwest 430 495 36,000  Level Montreal Center
01:52PM 52.9333 -73.1500 211° Southwest 430 495 36,000  Level Montreal Center
01:53PM 52.8167 -73.2667 211° Southwest 430 495 36,000  Level Montreal Center
01:54PM 52.7167 -73.3500 207° Southwest 430 495 36,000  Level Montreal Center
01:55PM 52.6167 -73.4333 207° Southwest 440 506 36,000  Level Montreal Center
01:56PM 52.5000 -73.5500 211° Southwest 440 506 36,000  Level Montreal Center
01:57PM 52.4000 -73.6500 211° Southwest 440 506 36,000  Level Montreal Center
01:58PM 52.3000 -73.7667 216° Southwest 440 506 36,000  Level Montreal Center
01:59PM 52.2000 -73.8500 207° Southwest 430 495 36,000  Level Montreal Center
02:00PM 52.0833 -73.9333 204° Southwest 440 506 36,000  Level Montreal Center
02:01PM 51.9833 -74.0500 216° Southwest 430 495 36,000  Level Montreal Center
02:02PM 51.8667 -74.1333 204° Southwest 430 495 36,000  Level Montreal Center
02:03PM 51.7667 -74.2500 216° Southwest 430 495 36,000  Level Montreal Center
02:04PM 51.6667 -74.3333 207° Southwest 430 495 36,000  Level Montreal Center
02:05PM 51.5667 -74.4167 207° Southwest 430 495 36,000  Level Montreal Center
02:06PM 51.4500 -74.5333 212° Southwest 430 495 36,000  Level Montreal Center
02:07PM 51.3500 -74.6167 208° Southwest 420 483 36,000  Level Montreal Center
02:08PM 51.2500 -74.7000 208° Southwest 420 483 36,000  Level Montreal Center
02:09PM 51.1500 -74.8167 216° Southwest 420 483 36,000  Level Montreal Center
02:10PM 51.0500 -74.9000 208° Southwest 420 483 36,000  Level Montreal Center
02:11PM 50.9333 -74.9833 204° Southwest 420 483 36,000  Level Montreal Center
02:12PM 50.8333 -75.0667 208° Southwest 420 483 36,000  Level Montreal Center
02:13PM 50.7333 -75.1667 212° Southwest 420 483 36,000  Level Montreal Center
02:14PM 50.6333 -75.2500 208° Southwest 420 483 36,000  Level Montreal Center
02:15PM 50.5167 -75.3500 209° Southwest 420 483 36,000  Level Montreal Center
02:16PM 50.4333 -75.4333 213° Southwest 420 483 36,000  Level Montreal Center
02:17PM 50.3167 -75.5167 205° Southwest 420 483 36,000  Level Montreal Center
02:18PM 50.2167 -75.6167 213° Southwest 420 483 36,000  Level Montreal Center
02:19PM 50.1167 -75.7000 208° Southwest 420 483 36,000  Level Montreal Center
02:20PM 50.0167 -75.8167 217° Southwest 420 483 36,000  Level Montreal Center
02:21PM 49.9000 -75.8833 200° South 420 483 36,000  Level Montreal Center
02:22PM 49.8000 -76.0000 217° Southwest 420 483 36,000  Level Montreal Center
02:23PM 49.6833 -76.0667 200° South 430 495 36,000  Level Montreal Center
02:24PM 49.6000 -76.1667 218° Southwest 420 483 36,000  Level Montreal Center
02:25PM 49.5000 -76.2500 208° Southwest 420 483 36,000  Level Montreal Center
02:26PM 49.4000 -76.3500 213° Southwest 410 472 36,000  Level Montreal Center
02:27PM 49.3000 -76.4333 209° Southwest 420 483 36,000  Level Montreal Center
02:28PM 49.1833 -76.5333 209° Southwest 420 483 36,000  Level Montreal Center
02:29PM 49.0833 -76.6000 204° Southwest 420 483 36,000  Level Montreal Center
02:30PM 48.9833 -76.7167 217° Southwest 420 483 36,000  Level Montreal Center
02:31PM 48.8833 -76.7833 204° Southwest 420 483 36,000  Level Montreal Center
02:32PM 48.7833 -76.8667 209° Southwest 410 472 36,000  Level Montreal Center
02:33PM 48.7628 -76.8831 209° Southwest  Level FlightAware Approximate
02:33PM 48.6833 -76.9667 213° Southwest 410 472 36,000  Level Montreal Center
02:34PM 48.5667 -77.0333 201° Southwest 410 472 36,000  Level Montreal Center
02:35PM 48.4667 -77.1000 204° Southwest 410 472 36,000  Level Montreal Center
02:41PM 47.9500 -77.5580 204° Southwest 398 458 36,000  Level FlightAware
02:41PM 47.8910 -77.6060 209° Southwest 394 453 36,000  Level FlightAware
02:42PM 47.8410 -77.6470 209° Southwest 391 450 36,000  Level FlightAware
02:43PM 47.7850 -77.6920 208° Southwest 389 448 36,000  Level FlightAware
02:43PM 47.7250 -77.7390 208° Southwest 388 447 36,000  Level FlightAware
02:44PM 47.6740 -77.7800 208° Southwest 388 447 36,000  Level FlightAware
02:44PM 47.6190 -77.8230 208° Southwest 389 448 36,000  Level FlightAware
02:45PM 47.5600 -77.8710 209° Southwest 389 448 36,000  Level FlightAware
02:46PM 47.5030 -77.9160 208° Southwest 389 448 36,000  Level FlightAware
02:46PM 47.4510 -77.9570 208° Southwest 389 448 36,000  Level FlightAware
02:47PM 47.3940 -78.0020 208° Southwest 390 449 36,000  Level FlightAware
02:47PM 47.3350 -78.0490 208° Southwest 390 449 36,000  Level FlightAware
02:48PM 47.2830 -78.0900 208° Southwest 392 451 36,000  Level FlightAware
02:48PM 47.2270 -78.1340 208° Southwest 393 452 36,000  Level FlightAware
02:49PM 47.1750 -78.1740 208° Southwest 394 453 36,000  Level FlightAware
02:50PM 47.1160 -78.2200 208° Southwest 395 455 36,000  Level FlightAware
02:50PM 47.0560 -78.2670 208° Southwest 395 455 36,000  Level FlightAware
02:51PM 47.0050 -78.3070 208° Southwest 395 455 36,000  Level FlightAware
02:51PM 46.9450 -78.3530 208° Southwest 395 455 36,000  Level FlightAware
02:52PM 46.8920 -78.3940 208° Southwest 395 455 36,000  Level FlightAware
02:53PM 46.8300 -78.4420 208° Southwest 396 456 36,000  Level FlightAware
02:53PM 46.7750 -78.4840 208° Southwest 397 457 36,000  Level FlightAware
02:54PM 46.7150 -78.5300 208° Southwest 399 459 36,000  Level FlightAware
02:54PM 46.6640 -78.5690 208° Southwest 399 459 36,000  Level FlightAware
02:55PM 46.6030 -78.6160 208° Southwest 400 460 36,000  Level FlightAware
02:55PM 46.5500 -78.6560 207° Southwest 401 461 36,000  Level FlightAware
02:56PM 46.4860 -78.7050 208° Southwest 400 460 36,000  Level FlightAware
02:57PM 46.4340 -78.7440 207° Southwest 401 461 36,000  Level FlightAware
02:57PM 46.3750 -78.7890 208° Southwest 401 461 36,000  Level FlightAware
02:58PM 46.3130 -78.8350 207° Southwest 401 461 36,000  Level FlightAware
02:58PM 46.2610 -78.8750 208° Southwest 402 463 36,000  Level FlightAware
02:59PM 46.2020 -78.9190 207° Southwest 404 465 36,000  Level FlightAware
02:59PM 46.1490 -78.9590 208° Southwest 405 466 36,000  Level FlightAware
03:00PM 46.0850 -79.0070 207° Southwest 408 470 36,000  Level FlightAware
03:01PM 46.0310 -79.0470 207° Southwest 410 472 36,000  Level FlightAware
03:01PM 45.9690 -79.0930 207° Southwest 410 472 36,000  Level FlightAware
03:02PM 45.9070 -79.1390 207° Southwest 410 472 36,000  Level FlightAware
03:02PM 45.8480 -79.1820 207° Southwest 409 471 36,000  Level FlightAware
03:03PM 45.7950 -79.2220 208° Southwest 408 470 36,000  Level FlightAware
03:04PM 45.7320 -79.2680 207° Southwest 408 470 36,000  Level FlightAware
03:04PM 45.6720 -79.3120 207° Southwest 407 468 36,000  Level FlightAware
03:05PM 45.6180 -79.3520 207° Southwest 408 470 36,000  Level FlightAware
03:05PM 45.5510 -79.4010 207° Southwest 410 472 36,000  Level FlightAware
03:06PM 45.5020 -79.4370 207° Southwest 411 473 36,000  Level FlightAware
03:06PM 45.4470 -79.4760 206° Southwest 412 474 36,000  Level FlightAware
03:07PM 45.3710 -79.5320 207° Southwest 414 476 36,000  Level FlightAware
03:08PM 45.3150 -79.5730 207° Southwest 414 476 36,000  Level FlightAware
03:08PM 45.2460 -79.6220 207° Southwest 414 476 36,000  Level FlightAware
03:09PM 45.1840 -79.6670 207° Southwest 416 479 36,000  Level FlightAware
03:09PM 45.1290 -79.7060 207° Southwest 417 480 36,000  Level FlightAware
03:10PM 45.0640 -79.7530 207° Southwest 419 482 36,000  Level FlightAware
03:11PM 45.0070 -79.7940 207° Southwest 420 483 36,000  Level FlightAware
03:11PM 44.9600 -79.8270 206° Southwest 421 484 36,000  Level FlightAware
03:12PM 44.8840 -79.8810 207° Southwest 423 487 36,000  Level FlightAware
03:12PM 44.8220 -79.9250 207° Southwest 422 486 36,000  Level FlightAware
03:13PM 44.7640 -79.9660 207° Southwest 422 486 36,000  Level FlightAware
03:14PM 44.7020 -80.0100 207° Southwest 420 483 36,000  Level FlightAware
03:14PM 44.6440 -80.0510 207° Southwest 419 482 36,000  Level FlightAware
03:15PM 44.5760 -80.0990 207° Southwest 420 483 36,000  Level FlightAware
03:15PM 44.5170 -80.1410 207° Southwest 421 484 36,000  Level FlightAware
03:16PM 44.4580 -80.1820 206° Southwest 421 484 36,000  Level FlightAware
03:17PM 44.3950 -80.2260 207° Southwest 421 484 36,000  Level FlightAware
03:17PM 44.3320 -80.2700 207° Southwest 421 484 36,000  Level FlightAware
03:18PM 44.2800 -80.3060 206° Southwest 421 484 36,000  Level FlightAware
03:18PM 44.2110 -80.3540 207° Southwest 419 482 36,000  Level FlightAware
03:19PM 44.1550 -80.3930 207° Southwest 419 482 36,000  Level FlightAware
03:19PM 44.0890 -80.4380 206° Southwest 420 483 36,000  Level FlightAware
03:20PM 44.0450 -80.4680 206° Southwest 421 484 36,000  Level FlightAware
03:21PM 43.9730 -80.5180 207° Southwest 421 484 36,000  Level FlightAware
03:21PM 43.9240 -80.5510 206° Southwest 422 486 36,000  Level FlightAware
03:22PM 43.8550 -80.5990 207° Southwest 421 484 36,000  Level FlightAware
03:22PM 43.7940 -80.6410 206° Southwest 421 484 36,000  Level FlightAware
03:23PM 43.7210 -80.6900 206° Southwest 421 484 36,000  Level FlightAware
03:24PM 43.6510 -80.7380 206° Southwest 423 487 36,000  Level FlightAware
03:24PM 43.5990 -80.7730 206° Southwest 423 487 36,000  Level FlightAware
03:25PM 43.5390 -80.8140 206° Southwest 423 487 36,000  Level FlightAware
03:25PM 43.4800 -80.8530 206° Southwest 424 488 36,000  Level FlightAware
03:26PM 43.4130 -80.8990 207° Southwest 424 488 36,000  Level FlightAware
03:27PM 43.3520 -80.9400 206° Southwest 425 489 36,000  Level FlightAware
03:27PM 43.2930 -80.9790 206° Southwest 426 490 36,000  Level FlightAware
03:28PM 43.2300 -81.0210 206° Southwest 427 491 36,000  Level FlightAware
03:28PM 43.1660 -81.0640 206° Southwest 427 491 36,000  Level FlightAware
03:29PM 43.1030 -81.1060 206° Southwest 428 493 36,000  Level FlightAware
03:29PM 43.0420 -81.1460 206° Southwest 425 489 36,000  Level FlightAware
03:30PM 42.9700 -81.1920 205° Southwest 422 486 36,000  Level FlightAware
03:31PM 42.9170 -81.2240 204° Southwest 422 486 36,000  Level FlightAware
03:31PM 42.8550 -81.2620 204° Southwest 421 484 36,000  Level FlightAware
03:32PM 42.7840 -81.3060 204° Southwest 421 484 36,000  Level FlightAware
03:32PM 42.7330 -81.3370 204° Southwest 422 486 36,000  Level FlightAware
03:33PM 42.6710 -81.3750 204° Southwest 422 486 36,000  Level FlightAware
03:34PM 42.6080 -81.4140 204° Southwest 421 484 36,000  Level FlightAware
03:34PM 42.5430 -81.4530 204° Southwest 420 483 36,000  Level FlightAware
03:35PM 42.4810 -81.4910 204° Southwest 421 484 36,000  Level FlightAware
03:35PM 42.4080 -81.5350 204° Southwest 421 484 36,000  Level FlightAware
03:36PM 42.3440 -81.5740 204° Southwest 421 484 36,000  Level FlightAware
03:37PM 42.2720 -81.6180 204° Southwest 422 486 36,000  Level FlightAware
03:37PM 42.2050 -81.6590 204° Southwest 424 488 36,000  Level FlightAware
03:38PM 42.1390 -81.6980 204° Southwest 426 490 36,000  Level FlightAware
03:38PM 42.0720 -81.7390 204° Southwest 425 489 36,000  Level FlightAware
03:39PM 42.0150 -81.7730 204° Southwest 424 488 36,000  Level FlightAware
03:40PM 41.9540 -81.8100 204° Southwest 424 488 36,000  Level FlightAware
03:40PM 41.8890 -81.8480 204° Southwest 423 487 36,000  Level FlightAware
03:41PM 41.8210 -81.8890 204° Southwest 422 486 36,000  Level FlightAware
03:41PM 41.7640 -81.9230 204° Southwest 421 484 36,000  Level FlightAware
03:42PM 41.7000 -81.9600 203° Southwest 419 482 36,000  Level FlightAware
03:43PM 41.6410 -81.9950 204° Southwest 418 481 36,000  Level FlightAware
03:43PM 41.5890 -82.0260 204° Southwest 418 481 36,000  Level FlightAware
03:44PM 41.5260 -82.0630 204° Southwest 417 480 36,000  Level FlightAware
03:44PM 41.4690 -82.0970 204° Southwest 419 482 36,000  Level FlightAware
03:45PM 41.4070 -82.1330 204° Southwest 421 484 36,000  Level FlightAware
03:45PM 41.3370 -82.1690 201° Southwest 429 494 36,000  Level FlightAware
03:46PM 41.2630 -82.1950 195° South 432 497 36,000  Level FlightAware
03:47PM 41.2020 -82.2180 196° South 432 497 36,000  Level FlightAware
03:47PM 41.1350 -82.2420 195° South 434 499 36,000  Level FlightAware
03:48PM 41.0650 -82.2670 195° South 434 499 36,000  Level FlightAware
03:48PM 41.0030 -82.2890 195° South 434 499 36,000  Level FlightAware
03:49PM 40.9300 -82.3150 195° South 432 497 36,000  Level FlightAware
03:49PM 40.8600 -82.3400 195° South 430 495 36,000  Level FlightAware
03:50PM 40.7970 -82.3620 195° South 429 494 36,000  Level FlightAware
03:51PM 40.7270 -82.3870 195° South 428 493 36,000  Level FlightAware
03:51PM 40.6630 -82.4040 191° South 437 503 36,000  Level FlightAware
03:52PM 40.5940 -82.4120 185° South 439 505 36,000  Level FlightAware
03:52PM 40.5170 -82.4200 185° South 439 505 36,000  Level FlightAware
03:53PM 40.4490 -82.4270 184° South 441 507 36,000  Level FlightAware
03:53PM 40.3790 -82.4330 184° South 443 510 36,000  Level FlightAware
03:54PM 40.3070 -82.4420 185° South 439 505 36,000  Level FlightAware
03:55PM 40.2350 -82.4500 185° South 439 505 36,000  Level FlightAware
03:55PM 40.1640 -82.4560 184° South 437 503 36,000  Level FlightAware
03:56PM 40.0950 -82.4610 183° South 433 498 36,000  Level FlightAware
03:56PM 40.0230 -82.4670 184° South 433 498 36,000  Level FlightAware
03:57PM 39.9510 -82.4730 184° South 434 499 36,000  Level FlightAware
03:58PM 39.8830 -82.4770 183° South 436 502 36,000  Level FlightAware
03:58PM 39.8110 -82.4810 182° South 432 497 36,000  Level FlightAware
03:59PM 39.7480 -82.5010 194° South 411 473 36,000  Level FlightAware
03:59PM 39.6870 -82.5250 197° South 405 466 36,000  Level FlightAware
04:00PM 39.6200 -82.5500 196° South 408 470 36,000  Level FlightAware
04:01PM 39.5530 -82.5760 197° South 405 466 36,000  Level FlightAware
04:01PM 39.4910 -82.6000 197° South 407 468 36,000  Level FlightAware
04:02PM 39.4330 -82.6220 196° South 407 468 36,000  Level FlightAware
04:02PM 39.3650 -82.6480 196° South 408 470 36,000  Level FlightAware
04:03PM 39.3020 -82.6720 196° South 408 470 36,000  Level FlightAware
04:03PM 39.2370 -82.6960 196° South 408 470 36,000  Level FlightAware
04:04PM 39.1790 -82.7180 196° South 408 470 36,000  Level FlightAware
04:05PM 39.1110 -82.7440 197° South 409 471 36,000  Level FlightAware
04:05PM 39.0600 -82.7630 196° South 410 472 36,000  Level FlightAware
04:06PM 38.9950 -82.7870 196° South 410 472 36,000  Level FlightAware
04:06PM 38.9370 -82.8090 196° South 411 473 36,000  Level FlightAware
04:07PM 38.8720 -82.8330 196° South 412 474 36,000  Level FlightAware
04:07PM 38.8080 -82.8570 196° South 412 474 36,000  Level FlightAware
04:08PM 38.7380 -82.8830 196° South 412 474 36,000  Level FlightAware
04:09PM 38.6800 -82.9050 196° South 411 473 36,000  Level FlightAware
04:09PM 38.6160 -82.9280 196° South 412 474 36,000  Level FlightAware
04:10PM 38.5470 -82.9540 196° South 412 474 36,000  Level FlightAware
04:10PM 38.4730 -82.9810 196° South 412 474 36,000  Level FlightAware
04:11PM 38.4060 -83.0060 196° South 414 476 36,000  Level FlightAware
04:11PM 38.3630 -83.0220 196° South 415 478 36,000  Level FlightAware
04:12PM 38.2930 -83.0470 196° South 417 480 36,000  Level FlightAware
04:13PM 38.2215 -83.0735 196° South 420 483 36,000  Level FlightAware ADS-B
04:13PM 38.1680 -83.0930 196° South 420 483 36,000  Level FlightAware
04:14PM 38.0990 -83.1180 196° South 421 484 36,000  Level FlightAware
04:14PM 38.0320 -83.1430 196° South 418 481 36,000  Level FlightAware
04:15PM 37.9610 -83.1690 196° South 419 482 36,000  Level FlightAware
04:16PM 37.9010 -83.1900 195° South 420 483 36,000  Level FlightAware
04:16PM 37.8709 -83.2013 197° South 420 483 36,000  Level FlightAware ADS-B
04:16PM 37.8063 -83.2246 196° South 419 482 36,000  Level FlightAware ADS-B
04:17PM 37.7070 -83.2610 196° South 418 481 36,000  Level FlightAware
04:18PM 37.6380 -83.2860 196° South 417 480 36,000  Level FlightAware
04:19PM 37.5612 -83.3130 196° South 417 480 36,000  Level FlightAware ADS-B
04:19PM 37.5009 -83.3346 196° South 419 482 36,000  Level FlightAware ADS-B
04:20PM 37.4430 -83.3550 196° South 419 482 36,000  Level FlightAware
04:20PM 37.3775 -83.3788 196° South 419 482 36,000  Level FlightAware ADS-B
04:21PM 37.3215 -83.3988 196° South 422 486 36,000  Level FlightAware ADS-B
04:21PM 37.2634 -83.4195 196° South 423 487 36,000  Level FlightAware ADS-B
04:22PM 37.1787 -83.4496 196° South 423 487 36,000  Level FlightAware ADS-B
04:23PM 37.1207 -83.4616 189° South 432 497 36,000  Level FlightAware ADS-B
04:23PM 37.0592 -83.4610 180° South 433 498 36,000  Level FlightAware ADS-B
04:24PM 36.9840 -83.4619 181° South 433 498 36,000  Level FlightAware ADS-B
04:24PM 36.9207 -83.4625 180° South 434 499 36,000  Level FlightAware ADS-B
04:25PM 36.8554 -83.4634 181° South 436 502 36,000  Level FlightAware ADS-B
04:25PM 36.7931 -83.4646 181° South 436 502 36,000  Level FlightAware ADS-B
04:26PM 36.7297 -83.4663 181° South 438 504 36,000  Level FlightAware ADS-B
04:26PM 36.6679 -83.4689 182° South 437 503 36,000  Level FlightAware ADS-B
04:27PM 36.6063 -83.4711 182° South 438 504 36,000  Level FlightAware ADS-B
04:27PM 36.5440 -83.4734 182° South 437 503 36,000  Level FlightAware ADS-B
04:27PM 36.5250 -83.4742 182° South 436 502 36,000  Level FlightAware ADS-B
04:28PM 36.4898 -83.4760 182° South 437 503 36,000  Level FlightAware ADS-B
04:28PM 36.4591 -83.4765 181° South 436 502 36,000  Level FlightAware ADS-B
04:28PM 36.4454 -83.4777 184° South 434 499 36,000  Level FlightAware ADS-B
04:28PM 36.4016 -83.4868 189° South 431 496 36,000  Level FlightAware ADS-B
04:29PM 36.3834 -83.4933 196° South 428 493 36,000  Level FlightAware ADS-B
04:29PM 36.3613 -83.5045 202° Southwest 424 488 36,000  Level FlightAware ADS-B
04:29PM 36.3195 -83.5332 209° Southwest 422 486 36,000  Level FlightAware ADS-B
04:30PM 36.2642 -83.5621 203° Southwest 423 487 36,000  Level FlightAware ADS-B
04:30PM 36.2452 -83.5719 203° Southwest 423 487 36,000  Level FlightAware ADS-B
04:30PM 36.2090 -83.6025 214° Southwest 421 484 36,000  Level FlightAware ADS-B
04:31PM 36.1627 -83.6478 218° Southwest 422 486 36,000  Level FlightAware ADS-B
04:31PM 36.1160 -83.6926 218° Southwest 424 488 36,000  Level FlightAware ADS-B
04:32PM 36.0690 -83.7378 218° Southwest 427 491 36,000  Level FlightAware ADS-B
04:32PM 36.0180 -83.7867 218° Southwest 428 493 36,000  Level FlightAware ADS-B
04:33PM 35.9794 -83.8222 217° Southwest 428 493 36,000  Level FlightAware ADS-B
04:33PM 35.9656 -83.8332 213° Southwest 429 494 36,000  Level FlightAware ADS-B
04:33PM 35.9086 -83.8709 208° Southwest 432 497 36,000  Level FlightAware ADS-B
04:34PM 35.8635 -83.8942 203° Southwest 436 502 36,000  Level FlightAware ADS-B
04:34PM 35.8183 -83.9120 198° South 438 504 36,000  Level FlightAware ADS-B
04:35PM 35.7764 -83.9238 193° South 440 506 36,000  Level FlightAware ADS-B
04:35PM 35.7355 -83.9340 191° South 441 507 36,000  Level FlightAware ADS-B
04:35PM 35.6735 -83.9504 192° South 435 501 36,000  Level FlightAware ADS-B
04:36PM 35.6133 -83.9656 192° South 436 502 36,000  Level FlightAware ADS-B
04:36PM 35.5512 -83.9808 191° South 436 502 36,000  Level FlightAware ADS-B
04:37PM 35.4902 -83.9955 191° South 438 504 36,000  Level FlightAware ADS-B
04:38PM 35.4259 -84.0108 191° South 441 507 36,000 840 Level FlightAware ADS-B
04:38PM 35.3661 -84.0252 191° South 433 498 36,900 1,500 Climbing FlightAware ADS-B
04:39PM 35.3069 -84.0396 191° South 434 499 37,500 1,020 Climbing FlightAware ADS-B
04:39PM 35.2424 -84.0552 191° South 437 503 38,000 600 Climbing FlightAware ADS-B
04:39PM 35.2142 -84.0640 194° South 439 505 38,000  Level FlightAware ADS-B
04:39PM 35.2001 -84.0710 202° Southwest 439 505 38,000  Level FlightAware ADS-B
04:40PM 35.1471 -84.1106 211° Southwest 438 504 38,000  Level FlightAware ADS-B
04:40PM 35.1044 -84.1453 214° Southwest 436 502 38,000  Level FlightAware ADS-B
04:41PM 35.0828 -84.1614 211° Southwest 435 501 38,000  Level FlightAware ADS-B
04:41PM 35.0600 -84.1724 202° Southwest 436 502 38,000  Level FlightAware ADS-B
04:41PM 35.0441 -84.1772 194° South 438 504 38,000  Level FlightAware ADS-B
04:41PM 34.9850 -84.1880 189° South 435 501 38,000  Level FlightAware
04:42PM 34.8995 -84.2036 189° South 436 502 38,000  Level FlightAware ADS-B
04:43PM 34.8382 -84.2150 189° South 439 505 38,000  Level FlightAware ADS-B
04:43PM 34.7872 -84.2250 189° South 438 504 38,000  Level FlightAware ADS-B
04:43PM 34.7548 -84.2354 195° South 436 502 38,000  Level FlightAware ADS-B
04:44PM 34.6943 -84.2603 199° South 438 504 38,000  Level FlightAware ADS-B
04:44PM 34.6366 -84.2844 199° South 439 505 38,000  Level FlightAware ADS-B
04:45PM 34.5730 -84.3110 199° South 439 505 38,000  Level FlightAware
04:45PM 34.5201 -84.3335 199° South 440 506 38,000  Level FlightAware ADS-B
04:46PM 34.4697 -84.3538 198° South 442 509 38,000  Level FlightAware ADS-B
04:46PM 34.4419 -84.3596 190° South 442 509 38,000  Level FlightAware ADS-B
04:47PM 34.3743 -84.3651 184° South 442 509 38,000  Level FlightAware ADS-B
04:47PM 34.3130 -84.3707 184° South 441 507 38,000  Level FlightAware ADS-B
04:48PM 34.2421 -84.3772 184° South 442 509 38,000  Level FlightAware ADS-B
04:48PM 34.1430 -84.3860 184° South 444 511 38,000  Level FlightAware
04:49PM 34.0760 -84.3930 185° South 445 512 38,000  Level FlightAware
04:50PM 34.0140 -84.3990 185° South 446 513 38,000  Level FlightAware
04:50PM 33.9280 -84.4070 184° South 447 514 38,000  Level FlightAware
04:51PM 33.8768 -84.4118 184° South 447 514 38,000  Level FlightAware ADS-B
04:51PM 33.8108 -84.4180 184° South 446 513 38,000  Level FlightAware ADS-B
04:52PM 33.7494 -84.4238 184° South 445 512 38,000  Level FlightAware ADS-B
04:52PM 33.6858 -84.4297 184° South 444 511 38,000  Level FlightAware ADS-B
04:53PM 33.6298 -84.4344 184° South 444 511 38,000  Level FlightAware ADS-B
04:54PM 33.5226 -84.4326 179° South 443 510 38,000  Level FlightAware ADS-B
04:54PM 33.4544 -84.4313 179° South 442 509 38,000  Level FlightAware ADS-B
04:55PM 33.3893 -84.4301 179° South 443 510 38,000 360 Level FlightAware ADS-B
04:55PM 33.3272 -84.4288 179° South 442 509 38,400 840 Climbing FlightAware ADS-B
04:56PM 33.2654 -84.4276 179° South 440 506 38,900 600 Climbing FlightAware ADS-B
04:56PM 33.2030 -84.4263 179° South 440 506 39,000 60 Climbing FlightAware ADS-B
04:57PM 33.1360 -84.4250 179° South 444 511 39,000  Level FlightAware
04:57PM 33.0670 -84.4240 179° South 442 509 39,000  Level FlightAware
04:58PM 32.9950 -84.4220 179° South 437 503 39,000  Level FlightAware
04:58PM 32.9310 -84.4210 179° South 436 502 39,000  Level FlightAware
04:59PM 32.8490 -84.4190 179° South 435 501 39,000  Level FlightAware
05:00PM 32.7850 -84.4180 179° South 435 501 39,000  Level FlightAware
05:00PM 32.7180 -84.4160 179° South 435 501 39,000  Level FlightAware
05:01PM 32.6450 -84.4150 179° South 436 502 39,000  Level FlightAware
05:01PM 32.5720 -84.4140 179° South 435 501 39,000  Level FlightAware
05:02PM 32.5060 -84.4120 179° South 432 497 39,000  Level FlightAware
05:02PM 32.4330 -84.4110 179° South 430 495 39,000  Level FlightAware
05:03PM 32.3610 -84.4090 179° South 430 495 39,000  Level FlightAware
05:04PM 32.2890 -84.4080 179° South 430 495 39,000  Level FlightAware
05:04PM 32.2260 -84.4070 179° South 430 495 39,000  Level FlightAware
05:05PM 32.1530 -84.4050 179° South 430 495 39,000  Level FlightAware
05:05PM 32.0840 -84.4040 179° South 431 496 39,000  Level FlightAware
05:06PM 32.0000 -84.4020 179° South 432 497 39,000  Level FlightAware
05:07PM 31.9310 -84.4010 179° South 432 497 39,000  Level FlightAware
05:07PM 31.8660 -84.3990 179° South 429 494 39,000  Level FlightAware
05:08PM 31.7930 -84.3980 179° South 427 491 39,000  Level FlightAware
05:08PM 31.7280 -84.3970 179° South 426 490 39,000  Level FlightAware
05:09PM 31.6620 -84.3950 179° South 426 490 39,000  Level FlightAware
05:10PM 31.5790 -84.3940 179° South 426 490 39,000  Level FlightAware
05:10PM 31.5030 -84.3920 179° South 422 486 39,000  Level FlightAware
05:11PM 31.4340 -84.3910 179° South 422 486 39,000  Level FlightAware
05:12PM 31.3710 -84.3900 179° South 422 486 39,000  Level FlightAware
05:12PM 31.2950 -84.3880 179° South 420 483 39,000  Level FlightAware
05:13PM 31.2150 -84.3870 179° South 419 482 39,000  Level FlightAware
05:13PM 31.1450 -84.3850 179° South 419 482 39,000  Level FlightAware
05:14PM 31.0650 -84.3840 179° South 419 482 39,000  Level FlightAware
05:15PM 30.9940 -84.3910 185° South 425 489 39,000  Level FlightAware
05:15PM 30.9170 -84.4140 194° South 427 491 39,000  Level FlightAware
05:16PM 30.8620 -84.4310 195° South 428 493 39,000  Level FlightAware
05:17PM 30.7790 -84.4570 195° South 435 501 39,000  Level FlightAware
05:17PM 30.7180 -84.4760 195° South 435 501 39,000  Level FlightAware
05:18PM 30.6470 -84.4980 195° South 436 502 39,000  Level FlightAware
05:18PM 30.5720 -84.5220 195° South 439 505 39,000  Level FlightAware
05:19PM 30.4940 -84.5470 195° South 441 507 39,000  Level FlightAware
05:20PM 30.4140 -84.5460 179° South 430 495 39,000  Level FlightAware
05:20PM 30.3520 -84.5100 153° Southeast 428 493 39,000  Level FlightAware
05:21PM 30.3120 -84.4640 135° Southeast 427 491 39,000  Level FlightAware
05:21PM 30.2680 -84.4120 134° Southeast 424 488 39,000  Level FlightAware
05:22PM 30.2020 -84.3370 136° Southeast 423 487 39,000  Level FlightAware
05:23PM 30.2980 -84.4480 315° West 421 484 39,000  Level FlightAware
05:23PM 30.0910 -84.2070 135° Southeast 416 479 39,000  Level FlightAware
05:24PM 30.0510 -84.1600 135° Southeast 418 481 39,000  Level FlightAware
05:25PM 29.9940 -84.0940 135° Southeast 418 481 39,000  Level FlightAware
05:25PM 29.9450 -84.0380 135° Southeast 420 483 39,000  Level FlightAware
05:26PM 29.8960 -83.9810 135° Southeast 420 483 39,000  Level FlightAware
05:26PM 29.8560 -83.9350 135° Southeast 422 486 39,000  Level FlightAware
05:27PM 29.7920 -83.8790 143° Southeast 428 493 39,000  Level FlightAware
05:27PM 29.7330 -83.8400 150° Southeast 428 493 39,000  Level FlightAware
05:28PM 29.6630 -83.7930 150° Southeast 426 490 39,000  Level FlightAware
05:29PM 29.6040 -83.7550 151° Southeast 427 491 39,000  Level FlightAware
05:29PM 29.5430 -83.7160 151° Southeast 425 489 39,000  Level FlightAware
05:30PM 29.4830 -83.6770 150° Southeast 426 490 39,000  Level FlightAware
05:30PM 29.4220 -83.6380 151° Southeast 427 491 39,000  Level FlightAware
05:31PM 29.3620 -83.5990 150° Southeast 428 493 39,000  Level FlightAware
05:32PM 29.3010 -83.5600 151° Southeast 422 486 39,000  Level FlightAware
05:32PM 29.2400 -83.5220 151° Southeast 424 488 39,000  Level FlightAware
05:33PM 29.1790 -83.4830 151° Southeast 423 487 39,000  Level FlightAware
05:33PM 29.1180 -83.4440 151° Southeast 422 486 39,000  Level FlightAware
05:34PM 29.0590 -83.4070 151° Southeast 422 486 39,000  Level FlightAware
05:35PM 28.9880 -83.3620 151° Southeast 422 486 39,000  Level FlightAware
05:35PM 28.9350 -83.3300 152° Southeast 431 496 39,000  Level FlightAware
05:36PM 28.8730 -83.2970 155° Southeast 424 488 39,000  Level FlightAware
05:36PM 28.8080 -83.2620 155° Southeast 432 497 39,000  Level FlightAware
05:37PM 28.7450 -83.2270 154° Southeast 433 498 39,000  Level FlightAware
05:37PM 28.6820 -83.1930 155° Southeast 433 498 39,000  Level FlightAware
05:38PM 28.6100 -83.1530 154° Southeast 428 493 39,000  Level FlightAware
05:39PM 28.5550 -83.1230 154° Southeast 429 494 39,000  Level FlightAware
05:39PM 28.4930 -83.0890 154° Southeast 430 495 39,000  Level FlightAware
05:40PM 28.4270 -83.0530 154° Southeast 431 496 39,000  Level FlightAware
05:40PM 28.3640 -83.0190 155° Southeast 430 495 39,000  Level FlightAware
05:41PM 28.2990 -82.9830 154° Southeast 430 495 39,000  Level FlightAware
05:42PM 28.2350 -82.9480 154° Southeast 430 495 39,000  Level FlightAware
05:42PM 28.1720 -82.9140 155° Southeast 429 494 39,000  Level FlightAware
05:43PM 28.1090 -82.8790 154° Southeast 434 499 39,000  Level FlightAware
05:43PM 28.0430 -82.8440 155° Southeast 443 510 39,000  Level FlightAware
05:44PM 27.9780 -82.8090 155° Southeast 443 510 39,000  Level FlightAware
05:44PM 27.9140 -82.7740 154° Southeast 444 511 39,000  Level FlightAware
05:45PM 27.8480 -82.7380 154° Southeast 444 511 39,000  Level FlightAware
05:46PM 27.7780 -82.7190 166° South 447 514 39,000  Level FlightAware
05:46PM 27.7040 -82.7160 178° South 448 516 39,000  Level FlightAware
05:47PM 27.6300 -82.7120 177° South 447 514 39,000  Level FlightAware
05:47PM 27.5560 -82.7080 177° South 454 522 39,000  Level FlightAware
05:48PM 27.4800 -82.7030 177° South 447 514 39,000  Level FlightAware
05:49PM 27.4080 -82.7000 178° South 448 516 39,000  Level FlightAware
05:49PM 27.3360 -82.6960 177° South 450 518 39,000  Level FlightAware
05:50PM 27.2600 -82.6920 177° South 452 520 39,000  Level FlightAware
05:50PM 27.1860 -82.6880 177° South 452 520 39,000  Level FlightAware
05:51PM 27.1110 -82.6840 177° South 450 518 39,000  Level FlightAware
05:51PM 27.0420 -82.6800 177° South 448 516 39,000  Level FlightAware
05:52PM 26.9550 -82.6750 177° South 457 526 39,000  Level FlightAware
05:53PM 26.8720 -82.6710 178° South 456 525 39,000  Level FlightAware
05:53PM 26.7980 -82.6670 177° South 448 516 39,000  Level FlightAware
05:54PM 26.6950 -82.6620 178° South 447 514 39,000  Level FlightAware
05:55PM 26.6370 -82.6580 176° South 447 514 39,000  Level FlightAware
05:55PM 26.5380 -82.6530 177° South 457 526 39,000  Level FlightAware
05:56PM 26.4410 -82.6480 177° South 451 519 39,000  Level FlightAware
05:57PM 26.3800 -82.6450 177° South 452 520 39,000  Level FlightAware
05:57PM 26.2930 -82.6400 177° South 452 520 39,000  Level FlightAware
05:58PM 26.2170 -82.6360 177° South 453 521 39,000  Level FlightAware
05:58PM 26.1480 -82.6320 177° South 453 521 39,000  Level FlightAware
05:59PM 26.0560 -82.6270 177° South 463 533 39,000  Level FlightAware
06:00PM 25.9770 -82.6230 177° South 463 533 39,000  Level FlightAware
06:01PM 25.9100 -82.6190 177° South 463 533 39,000  Level FlightAware
06:01PM 25.8420 -82.6150 177° South 463 533 39,000  Level FlightAware
06:02PM 25.7300 -82.6100 178° South 467 537 39,000  Level FlightAware
06:02PM 25.6580 -82.6060 177° South 484 557 39,000  Level FlightAware
06:03PM 25.5760 -82.6020 177° South 469 540 39,000  Level FlightAware
06:04PM 25.4990 -82.5980 177° South 469 540 39,000  Level FlightAware
06:04PM 25.4310 -82.5940 177° South 469 540 39,000  Level FlightAware
06:05PM 25.3480 -82.5900 178° South 468 539 39,000  Level FlightAware
06:05PM 25.2650 -82.5850 177° South 470 541 39,000  Level FlightAware
06:06PM 25.1970 -82.5810 177° South 470 541 39,000  Level FlightAware
06:06PM 25.1270 -82.5780 178° South 463 533 39,000 -1,140 Level FlightAware
06:07PM 25.0370 -82.5730 177° South 480 552 37,700 -1,920 Descending FlightAware
06:08PM 24.9600 -82.5690 177° South 465 535 36,600 -1,980 Descending FlightAware
06:08PM 24.8850 -82.5650 177° South 468 539 35,400 -1,980 Descending FlightAware
06:09PM 24.8030 -82.5610 177° South 463 533 34,200 -1,800 Descending FlightAware
06:09PM 24.7430 -82.5580 177° South 449 517 33,400 -720 Descending FlightAware
06:10PM 24.6750 -82.5540 177° South 449 517 33,400 -1,920 Level FlightAware
06:11PM 24.5760 -82.5490 177° South 435 501 30,900 -2,160 Descending FlightAware
06:11PM 24.4950 -82.5440 177° South 434 499 30,400 -420 Descending FlightAware
06:12PM 24.4370 -82.5410 177° South 434 499 30,400  Level FlightAware
06:13PM 24.3740 -82.5370 177° South 434 499 30,400  Level FlightAware
06:13PM 24.3110 -82.5340 178° South 434 499 30,400 -4,500 Level FlightAware
06:14PM 24.2170 -82.5300 178° South 729 839 25,400 -4,500 Descending FlightAware
06:14PM 24.1270 -82.5250 177° South 419 482 24,700 -540 Descending FlightAware
06:15PM 24.0680 -82.5220 177° South 419 482 24,700  Level FlightAware
06:16PM 24.0040 -82.5180 177° South 419 482 24,700  Level FlightAware
06:16PM 23.9450 -82.5150 177° South 419 482 24,700  Level FlightAware
06:17PM 23.8860 -82.5110 176° South 419 482 24,700  Level FlightAware
06:17PM 23.8460 -82.5090 177° South 419 482 24,700  Level FlightAware
06:18PM 23.7840 -82.5050 177° South 419 482 24,700  Level FlightAware
06:23PM 23.2242 -82.4174 175° South  Level FlightAware Approximate
06:24PM 23.1019 -82.4104 170° South  Level FlightAware Approximate
06:25PM 22.9891 -82.4091 180° South  Level Estimated
06:26PM 22.9891 -82.4091 180° South  Level Estimated
06:27PM 22.9891 -82.4091 180° South  Level Estimated
06:28PM 22.9891 -82.4091 180° South  Level Estimated
06:29PM 22.9891 -82.4091 180° South  Level Estimated
06:30PM 22.9891 -82.4091 180° South  Level Estimated
06:31PM 22.9891 -82.4091 180° South  Level Estimated
06:32PM 22.9891 -82.4091 180° South  Level Estimated
06:33PM 22.9891 -82.4091 180° South  Level Estimated
06:34PM 22.9891 -82.4091 180° South  Level Estimated
06:35PM 22.9891 -82.4091 180° South  Level Estimated
06:36PM 22.9891 -82.4091 180° South  Level Estimated
06:37PM 22.9891 -82.4091 180° South  Level Estimated
06:38PM 22.9891 -82.4091 180° South  Level Estimated
06:39PM 22.9891 -82.4091 180° South  Level Estimated
06:40PM 22.9891 -82.4091 180° South  Level Estimated
06:41PM 22.9891 -82.4091 180° South  Level Estimated
06:42PM 22.9891 -82.4091 180° South  Level Estimated
06:43PM 22.9891 -82.4091 180° South  Level Estimated
06:44PM 22.9891 -82.4091 180° South  Level Estimated
06:45PM 22.9891 -82.4091 180° South  Level Estimated
06:46PM 22.9891 -82.4091 180° South  Level Estimated
06:47PM 22.9891 -82.4091 180° South  Level Estimated
06:48PM 22.9891 -82.4091 180° South  Level Estimated